Maysville, North Carolina
Current Conditions -  °F | °C
As of 3:54 AM on Wednesday 22 Oct 2014 (Local Time) from KEWN Reporting Station
Few Clouds Few Clouds  
Wind Chill: 57°   Ceiling: Unl
Heat Index: 57°   Visibility: 10mi
Dew Point: 44°   Wind: 7mph
Humidity: 62%   Direction: 310°NW
Pressure: 29.88"   Gusts: NA
Location:  34.9°N, 77.23°W
Report Text: KEWN 220754Z AUTO 31006KT 10SM FEW065 14/07 A2988 RMK AO2 SLP117 T01390067
Loading
Personal Weather Stations






























Interactive Weather Map
Tropical Storm Tracking
New forecast layout! Learn more

10-Day Weather Forecast

Advertisements
Track Severe Weather on mobile